Time;durP1;ratioP1;P1;durP2;ratioP2;P2;SDS_P1;SDS_P2;PMS_P1;PMS_P2;Temp;Humidity;BMP_temperature;BMP_pressure;BME280_temperature;BME280_humidity;BME280_pressure;Samples;Min_cycle;Max_cycle;Signal;HPM_P1;HPM_P2
2021/12/31 00:00:29;;;;;;;25.50;22.90;;;4.20;99.90;;;;;;4164727;28;20034;-55
2021/12/31 00:02:31;;;;;;;26.73;23.98;;;4.40;99.90;;;;;;4162458;28;20037;-56
2021/12/31 00:04:34;;;;;;;28.70;24.52;;;4.60;99.90;;;;;;4165327;28;20076;-56
2021/12/31 00:06:36;;;;;;;27.63;24.10;;;4.70;99.90;;;;;;4162294;28;20045;-56
2021/12/31 00:08:38;;;;;;;;;;;4.60;99.90;;;;;;4164663;28;20049;-54
2021/12/31 00:10:40;;;;;;;32.63;25.58;;;4.60;99.90;;;;;;4161632;28;19951;-57
2021/12/31 00:12:44;;;;;;;26.80;24.05;;;4.50;99.90;;;;;;4164896;28;20107;-57
2021/12/31 00:14:48;;;;;;;29.63;26.48;;;4.50;99.90;;;;;;4160724;28;20041;-56
2021/12/31 00:16:51;;;;;;;29.13;25.85;;;4.30;99.90;;;;;;4164918;28;20037;-56
2021/12/31 00:18:53;;;;;;;27.75;24.65;;;4.30;99.90;;;;;;4161653;28;20041;-56
2021/12/31 00:20:56;;;;;;;;;;;4.20;99.90;;;;;;4164894;28;20049;-56
2021/12/31 00:23:12;;;;;;;19.20;17.17;;;4.20;99.90;;;;;;4163455;28;19949;-57
2021/12/31 00:25:15;;;;;;;20.98;19.00;;;4.30;99.90;;;;;;4164687;28;20095;-57
2021/12/31 00:27:17;;;;;;;22.23;19.98;;;4.30;99.90;;;;;;4162274;28;20057;-56
2021/12/31 00:29:19;;;;;;;26.65;22.83;;;4.40;99.90;;;;;;4164711;28;20041;-57
2021/12/31 00:31:21;;;;;;;29.55;25.70;;;4.30;99.90;;;;;;4162037;28;20045;-57
2021/12/31 00:33:24;;;;;;;30.42;27.08;;;4.10;99.90;;;;;;4164601;28;20117;-56
2021/12/31 00:35:26;;;;;;;26.40;23.77;;;4.00;99.90;;;;;;4164130;28;20123;-57
2021/12/31 00:37:32;;;;;;;26.30;23.67;;;3.90;99.90;;;;;;4177629;28;20033;-56
2021/12/31 00:39:34;;;;;;;25.20;22.65;;;4.00;99.90;;;;;;4164336;28;20077;-57
2021/12/31 00:41:36;;;;;;;27.20;24.50;;;4.10;99.90;;;;;;4162841;28;20072;-57
2021/12/31 00:43:38;;;;;;;29.35;26.30;;;4.10;99.90;;;;;;4164669;28;20040;-56
2021/12/31 00:45:41;;;;;;;86.57;35.60;;;4.00;99.90;;;;;;4162806;28;20041;-54
2021/12/31 00:47:45;;;;;;;30.63;27.27;;;3.80;99.90;;;;;;4164467;28;20100;-55
2021/12/31 00:49:47;;;;;;;34.05;29.70;;;3.80;99.90;;;;;;4160484;28;20080;-56
2021/12/31 00:51:49;;;;;;;36.78;29.92;;;3.80;99.90;;;;;;4163582;28;20410;-57
2021/12/31 00:53:51;;;;;;;31.13;26.70;;;3.90;99.90;;;;;;4161687;28;20120;-56
2021/12/31 00:55:53;;;;;;;27.42;22.35;;;3.90;99.90;;;;;;4164774;28;20041;-57
2021/12/31 00:57:55;;;;;;;19.38;17.67;;;4.00;99.90;;;;;;4161507;28;20038;-56
2021/12/31 00:59:59;;;;;;;17.83;16.35;;;4.00;99.90;;;;;;4163742;28;20068;-56
2021/12/31 01:02:04;;;;;;;21.27;19.38;;;3.90;99.90;;;;;;4162727;28;20084;-56
2021/12/31 01:04:06;;;;;;;18.70;16.88;;;4.00;99.90;;;;;;4163676;28;20069;-56
2021/12/31 01:06:08;;;;;;;16.10;14.73;;;3.90;99.90;;;;;;4162595;28;20042;-56
2021/12/31 01:08:10;;;;;;;17.98;16.35;;;3.80;99.90;;;;;;4163679;28;20072;-57
2021/12/31 01:10:15;;;;;;;20.15;18.20;;;3.80;99.90;;;;;;4160078;28;20058;-56
2021/12/31 01:12:17;;;;;;;20.38;18.38;;;3.70;99.90;;;;;;4164274;28;20103;-56
2021/12/31 01:16:37;;;;;;;18.88;16.95;;;3.70;99.90;;;;;;4164112;28;20116;-57
2021/12/31 01:20:53;;;;;;;19.85;17.88;;;3.80;99.90;;;;;;4163503;28;20493;-55
2021/12/31 01:22:55;;;;;;;18.75;17.02;;;3.80;99.90;;;;;;4161412;28;20128;-56
2021/12/31 01:24:58;;;;;;;20.85;18.95;;;3.80;99.90;;;;;;4164793;28;20095;-56
2021/12/31 01:27:00;;;;;;;17.48;16.08;;;3.80;99.90;;;;;;4162135;28;20046;-57
2021/12/31 01:29:03;;;;;;;15.88;14.75;;;3.80;99.90;;;;;;4162942;28;20049;-56
2021/12/31 01:31:05;;;;;;;17.33;15.90;;;3.80;99.90;;;;;;4158352;28;20037;-57
2021/12/31 01:33:08;;;;;;;14.88;13.65;;;3.80;99.90;;;;;;4163880;28;20147;-57
2021/12/31 01:35:10;;;;;;;16.13;14.80;;;3.90;99.90;;;;;;4161367;28;20037;-56
2021/12/31 01:37:13;;;;;;;13.63;12.63;;;3.90;99.90;;;;;;4163540;28;20072;-55
2021/12/31 01:39:15;;;;;;;12.20;11.50;;;3.90;99.90;;;;;;4161219;28;20048;-55
2021/12/31 01:41:18;;;;;;;16.42;15.23;;;3.80;99.90;;;;;;4163300;28;20034;-56
2021/12/31 01:43:20;;;;;;;20.52;18.63;;;3.80;99.90;;;;;;4161509;28;20409;-55
2021/12/31 01:45:24;;;;;;;24.50;22.17;;;3.80;99.90;;;;;;4163413;28;20061;-56
2021/12/31 01:47:55;;;;;;;47.35;23.92;;;3.70;99.90;;;;;;4160932;28;20045;-56
2021/12/31 01:49:58;;;;;;;22.50;20.27;;;3.60;99.90;;;;;;4162299;28;20041;-56
2021/12/31 01:52:01;;;;;;;16.05;15.05;;;3.50;99.90;;;;;;4161093;28;20069;-56
2021/12/31 01:54:03;;;;;;;14.07;13.23;;;3.50;99.90;;;;;;4161814;28;20405;-56
2021/12/31 01:56:06;;;;;;;13.15;12.25;;;3.50;99.90;;;;;;4161946;28;20045;-56
2021/12/31 01:58:09;;;;;;;12.73;11.85;;;3.50;99.90;;;;;;4162984;28;20034;-57
2021/12/31 02:00:12;;;;;;;15.05;13.98;;;3.60;99.90;;;;;;4162842;28;20040;-56
2021/12/31 02:02:15;;;;;;;;;;;3.60;99.90;;;;;;4147386;28;20469;-56
2021/12/31 02:04:17;;;;;;;30.00;21.52;;;3.50;99.90;;;;;;4163008;28;19928;-55
2021/12/31 02:06:19;;;;;;;29.05;22.88;;;3.50;99.90;;;;;;4162151;28;20037;-56
2021/12/31 02:08:21;;;;;;;27.50;24.88;;;3.30;99.90;;;;;;4162617;28;20063;-56
2021/12/31 02:10:23;;;;;;;18.83;17.35;;;3.20;99.90;;;;;;4161041;28;20572;-54
2021/12/31 02:12:26;;;;;;;16.05;14.70;;;3.20;99.90;;;;;;4163475;28;20068;-56
2021/12/31 02:14:28;;;;;;;14.32;13.43;;;3.10;99.90;;;;;;4161925;28;20042;-55
2021/12/31 02:16:31;;;;;;;15.75;14.93;;;3.20;99.90;;;;;;4162469;28;20064;-55
2021/12/31 02:18:34;;;;;;;14.98;13.98;;;3.20;99.90;;;;;;4159875;28;20041;-56
2021/12/31 02:20:44;;;;;;;15.77;14.68;;;3.20;99.90;;;;;;4163180;28;20032;-56
2021/12/31 02:23:07;;;;;;;15.93;14.80;;;3.20;99.90;;;;;;4161417;28;20040;-56
2021/12/31 02:25:09;;;;;;;16.02;14.85;;;3.20;99.90;;;;;;4162015;28;20041;-56
2021/12/31 02:27:11;;;;;;;15.63;14.55;;;3.20;99.90;;;;;;4160154;28;20049;-56
2021/12/31 02:29:13;;;;;;;14.27;13.57;;;3.20;99.90;;;;;;4160984;28;20104;-55
2021/12/31 02:31:15;;;;;;;13.70;12.98;;;3.20;99.90;;;;;;4160908;28;20038;-56
2021/12/31 02:33:17;;;;;;;14.25;13.52;;;3.30;99.90;;;;;;4160739;28;20049;-56
2021/12/31 02:35:19;;;;;;;15.05;13.93;;;3.40;99.90;;;;;;4159920;28;20037;-56
2021/12/31 02:37:21;;;;;;;14.80;13.80;;;3.30;99.90;;;;;;4163601;28;20072;-56
2021/12/31 02:39:23;;;;;;;11.20;10.70;;;3.20;99.90;;;;;;4159591;28;20037;-55
2021/12/31 02:41:25;;;;;;;11.70;11.30;;;3.20;99.90;;;;;;4170775;28;20041;-56
2021/12/31 02:43:27;;;;;;;10.75;9.82;;;3.20;99.90;;;;;;4161663;28;20061;-56
2021/12/31 02:45:34;;;;;;;11.88;11.27;;;3.30;99.90;;;;;;4162470;28;20038;-55
2021/12/31 02:47:44;;;;;;;11.45;10.85;;;3.30;99.90;;;;;;4161498;28;20037;-56
2021/12/31 02:49:48;;;;;;;11.73;11.13;;;3.30;99.90;;;;;;4162236;28;20045;-54
2021/12/31 02:51:50;;;;;;;11.73;11.32;;;3.30;99.90;;;;;;4162287;28;20128;-56
2021/12/31 02:53:55;;;;;;;15.57;14.30;;;3.30;99.90;;;;;;4151222;28;20411;-56
2021/12/31 02:56:04;;;;;;;16.60;15.35;;;3.20;99.90;;;;;;4160204;28;20642;-56
2021/12/31 02:58:07;;;;;;;19.15;17.60;;;3.10;99.90;;;;;;4162815;28;20061;-56
2021/12/31 03:00:10;;;;;;;18.55;16.88;;;3.00;99.90;;;;;;4160390;28;20065;-55
2021/12/31 03:02:13;;;;;;;13.43;12.73;;;3.00;99.90;;;;;;4161727;28;20041;-56
2021/12/31 03:04:16;;;;;;;;;;;3.00;99.90;;;;;;4159673;28;20065;-56
2021/12/31 03:06:18;;;;;;;11.50;10.85;;;3.10;99.90;;;;;;4178500;28;19960;-55
2021/12/31 03:08:26;;;;;;;14.88;13.40;;;3.20;99.90;;;;;;4160220;28;20041;-56
2021/12/31 03:10:30;;;;;;;15.35;14.32;;;3.20;99.90;;;;;;4156388;28;20582;-56
2021/12/31 03:12:32;;;;;;;15.93;14.77;;;3.10;99.90;;;;;;4160820;28;20051;-55
2021/12/31 03:14:35;;;;;;;16.35;14.48;;;3.00;99.90;;;;;;4162324;28;20041;-55
2021/12/31 03:16:37;;;;;;;16.23;15.05;;;3.00;99.90;;;;;;4161654;28;20052;-55
2021/12/31 03:18:40;;;;;;;16.77;15.18;;;3.00;99.90;;;;;;4161458;28;20033;-56
2021/12/31 03:20:46;;;;;;;21.67;19.40;;;3.00;99.90;;;;;;4160447;28;20052;-56
2021/12/31 03:22:48;;;;;;;22.20;18.98;;;2.90;99.90;;;;;;4162046;28;20069;-55
2021/12/31 03:24:51;;;;;;;23.58;21.25;;;2.80;99.90;;;;;;4158609;28;20119;-54
2021/12/31 03:26:53;;;;;;;16.50;15.10;;;2.80;99.90;;;;;;4160324;28;20069;-55
2021/12/31 03:28:55;;;;;;;17.08;15.73;;;2.80;99.90;;;;;;4161278;28;20510;-55
2021/12/31 03:30:57;;;;;;;22.13;16.95;;;2.80;99.90;;;;;;4161586;28;20073;-55
2021/12/31 03:32:59;;;;;;;15.57;14.40;;;2.90;99.90;;;;;;4161453;28;20037;-56
2021/12/31 03:35:01;;;;;;;15.18;14.25;;;2.90;99.90;;;;;;4161035;28;20044;-55
2021/12/31 03:37:03;;;;;;;12.25;11.52;;;2.90;99.90;;;;;;4163287;28;20509;-54
2021/12/31 03:39:05;;;;;;;10.52;9.82;;;2.90;99.90;;;;;;4163838;28;20069;-56
2021/12/31 03:41:07;;;;;;;9.27;8.98;;;3.00;99.90;;;;;;4165520;28;20063;-56
2021/12/31 03:43:09;;;;;;;9.23;8.80;;;3.00;99.90;;;;;;4163774;28;20076;-55
2021/12/31 03:45:11;;;;;;;9.93;9.27;;;3.10;99.90;;;;;;4165767;28;20128;-55
2021/12/31 03:47:14;;;;;;;7.22;7.03;;;3.00;99.90;;;;;;4162737;28;20076;-56
2021/12/31 03:49:16;;;;;;;10.10;9.70;;;2.90;99.90;;;;;;4164642;28;20033;-54
2021/12/31 03:51:18;;;;;;;10.60;9.95;;;3.00;99.90;;;;;;4163726;28;20069;-55
2021/12/31 03:53:20;;;;;;;9.73;9.13;;;3.00;99.90;;;;;;4164785;28;20076;-55
2021/12/31 03:55:22;;;;;;;10.52;9.80;;;3.00;99.90;;;;;;4164365;28;20037;-56
2021/12/31 03:57:24;;;;;;;11.50;11.00;;;3.00;99.90;;;;;;4164215;28;20116;-56
2021/12/31 03:59:26;;;;;;;18.42;16.65;;;3.00;99.90;;;;;;4163304;28;20061;-56
2021/12/31 04:01:28;;;;;;;20.17;18.15;;;2.80;99.90;;;;;;4165559;28;20030;-55
2021/12/31 04:03:31;;;;;;;177.57;21.73;;;2.60;99.90;;;;;;4162875;28;20061;-54
2021/12/31 04:05:34;;;;;;;296.63;24.42;;;2.30;99.90;;;;;;4163832;28;20041;-56
2021/12/31 04:07:36;;;;;;;32.85;14.30;;;2.20;99.90;;;;;;4164821;28;20792;-56
2021/12/31 04:09:38;;;;;;;17.10;16.00;;;2.20;99.90;;;;;;4159206;28;20126;-55
2021/12/31 04:11:40;;;;;;;15.85;14.82;;;2.40;99.90;;;;;;4152522;28;20517;-56
2021/12/31 04:13:42;;;;;;;16.75;15.43;;;2.40;99.90;;;;;;4165604;28;20107;-56
2021/12/31 04:15:44;;;;;;;14.40;13.40;;;2.50;99.90;;;;;;4163427;28;20126;-56
2021/12/31 04:17:46;;;;;;;14.82;13.98;;;2.50;99.90;;;;;;4163503;28;20029;-56
2021/12/31 04:19:52;;;;;;;14.18;13.25;;;2.50;99.90;;;;;;4163178;28;20087;-56
2021/12/31 04:21:54;;;;;;;14.30;13.40;;;2.50;99.90;;;;;;4163335;28;20033;-55
2021/12/31 04:24:15;;;;;;;14.75;13.68;;;2.50;99.90;;;;;;4160821;28;20120;-55
2021/12/31 04:26:19;;;;;;;14.70;13.60;;;2.50;99.90;;;;;;4165413;28;20045;-56
2021/12/31 04:28:21;;;;;;;14.10;13.27;;;2.50;99.90;;;;;;4161784;28;20054;-55
2021/12/31 04:30:23;;;;;;;14.50;13.30;;;2.50;99.90;;;;;;4163528;28;20045;-55
2021/12/31 04:32:25;;;;;;;13.43;12.63;;;2.50;99.90;;;;;;4161842;28;20184;-55
2021/12/31 04:34:28;;;;;;;15.55;14.35;;;2.50;99.90;;;;;;4165630;28;20128;-56
2021/12/31 04:36:30;;;;;;;;;;;2.40;99.90;;;;;;4162042;28;20037;-55
2021/12/31 04:38:32;;;;;;;18.95;13.13;;;2.30;99.90;;;;;;4165458;28;19925;-56
2021/12/31 04:40:34;;;;;;;15.35;13.98;;;2.30;99.90;;;;;;4158757;28;20042;-56
2021/12/31 04:42:39;;;;;;;12.50;11.95;;;2.20;99.90;;;;;;4165741;28;20398;-55
2021/12/31 04:44:41;;;;;;;13.63;12.90;;;2.30;99.90;;;;;;4161317;28;20034;-55
2021/12/31 04:46:43;;;;;;;14.07;13.02;;;2.30;99.90;;;;;;4156698;28;20033;-56
2021/12/31 04:48:46;;;;;;;13.93;13.07;;;2.30;99.90;;;;;;4161560;28;20042;-55
2021/12/31 04:50:48;;;;;;;15.85;14.32;;;2.40;99.90;;;;;;4164467;28;20095;-56
2021/12/31 04:52:50;;;;;;;12.20;11.63;;;2.30;99.90;;;;;;4161658;28;20481;-56
2021/12/31 04:54:52;;;;;;;9.38;9.07;;;2.30;99.90;;;;;;4164781;28;20075;-55
2021/12/31 04:56:56;;;;;;;9.13;8.82;;;2.40;99.90;;;;;;4161208;28;20187;-55
2021/12/31 04:58:58;;;;;;;10.55;10.13;;;2.50;99.90;;;;;;4164016;28;20065;-54
2021/12/31 05:01:00;;;;;;;11.10;10.70;;;2.50;99.90;;;;;;4161903;28;20033;-55
2021/12/31 05:03:07;;;;;;;11.43;10.73;;;2.40;99.90;;;;;;4163986;28;20033;-56
2021/12/31 05:05:09;;;;;;;13.05;12.15;;;2.50;99.90;;;;;;4159840;28;20492;-55
2021/12/31 05:07:11;;;;;;;12.00;11.23;;;2.40;99.90;;;;;;4156421;28;20069;-55
2021/12/31 05:09:13;;;;;;;11.18;10.68;;;2.50;99.90;;;;;;4162571;28;20073;-55
2021/12/31 05:11:15;;;;;;;10.38;9.95;;;2.40;99.90;;;;;;4164255;28;20052;-55
2021/12/31 05:13:19;;;;;;;9.63;8.93;;;2.40;99.90;;;;;;4162904;28;20030;-57
2021/12/31 05:15:26;;;;;;;9.93;9.55;;;2.40;99.90;;;;;;4164205;28;20076;-55
2021/12/31 05:17:28;;;;;;;9.50;9.10;;;2.40;99.90;;;;;;4160256;28;20040;-56
2021/12/31 05:19:30;;;;;;;8.43;8.23;;;2.30;99.90;;;;;;4162705;28;20041;-57
2021/12/31 05:21:32;;;;;;;8.05;7.85;;;2.40;99.90;;;;;;4162185;28;20037;-56
2021/12/31 05:23:34;;;;;;;8.63;8.43;;;2.30;99.90;;;;;;4147923;28;20096;-56
2021/12/31 05:25:36;;;;;;;6.72;6.63;;;2.30;99.90;;;;;;4160289;28;20103;-56
2021/12/31 05:27:38;;;;;;;12.50;7.53;;;2.30;99.90;;;;;;4164196;28;20065;-55
2021/12/31 05:29:40;;;;;;;7.57;7.03;;;2.40;99.90;;;;;;4160460;28;20033;-56
2021/12/31 05:31:42;;;;;;;8.23;7.95;;;2.40;99.90;;;;;;4163923;28;20044;-55
2021/12/31 05:33:44;;;;;;;10.48;9.98;;;2.40;99.90;;;;;;4161908;28;20056;-56
2021/12/31 05:35:46;;;;;;;51.95;34.42;;;2.40;99.90;;;;;;4163506;28;20037;-55
2021/12/31 05:37:50;;;;;;;37.20;28.15;;;2.20;99.90;;;;;;4161901;28;20060;-55
2021/12/31 05:39:52;;;;;;;29.75;21.58;;;2.20;99.90;;;;;;4163590;28;20096;-55
2021/12/31 05:41:55;;;;;;;13.25;11.88;;;2.20;99.90;;;;;;4161413;28;20106;-56
2021/12/31 05:43:57;;;;;;;18.15;16.58;;;2.20;99.90;;;;;;4163612;28;20398;-56
2021/12/31 05:45:59;;;;;;;16.50;14.90;;;2.10;99.90;;;;;;4162944;28;20045;-54
2021/12/31 05:48:01;;;;;;;13.63;12.60;;;2.20;99.90;;;;;;4163116;28;20048;-55
2021/12/31 05:50:05;;;;;;;10.57;10.23;;;2.20;99.90;;;;;;4163091;28;20080;-55
2021/12/31 05:52:07;;;;;;;12.95;12.35;;;2.10;99.90;;;;;;4148524;28;20073;-56
2021/12/31 05:54:09;;;;;;;16.25;15.25;;;2.10;99.90;;;;;;4162610;28;20524;-56
2021/12/31 05:56:11;;;;;;;15.48;14.27;;;2.10;99.90;;;;;;4162049;28;20042;-56
2021/12/31 05:58:13;;;;;;;16.88;15.73;;;2.10;99.90;;;;;;4162540;28;20042;-55
2021/12/31 06:00:16;;;;;;;36.80;16.15;;;2.10;99.90;;;;;;4161799;28;20045;-56
2021/12/31 06:02:18;;;;;;;14.90;13.85;;;1.90;99.90;;;;;;4162778;28;20034;-56
2021/12/31 06:04:22;;;;;;;13.50;12.95;;;1.90;99.90;;;;;;4152493;28;20037;-56
2021/12/31 06:06:24;;;;;;;10.57;10.38;;;1.90;99.90;;;;;;4162741;28;20045;-56
2021/12/31 06:08:26;;;;;;;10.80;10.27;;;1.80;99.90;;;;;;4161853;28;20033;-54
2021/12/31 06:10:28;;;;;;;9.85;9.55;;;1.80;99.90;;;;;;4160592;28;20057;-56
2021/12/31 06:12:33;;;;;;;10.13;9.73;;;1.90;99.90;;;;;;4161942;28;20849;-56
2021/12/31 06:14:35;;;;;;;9.38;9.07;;;1.90;99.90;;;;;;4160806;28;20049;-56
2021/12/31 06:16:43;;;;;;;10.32;9.88;;;1.90;99.90;;;;;;4160071;28;20092;-56
2021/12/31 06:18:45;;;;;;;9.18;8.68;;;1.90;99.90;;;;;;4160295;28;20045;-56
2021/12/31 06:20:47;;;;;;;7.53;7.22;;;1.90;99.90;;;;;;4161561;28;20510;-55
2021/12/31 06:22:50;;;;;;;8.93;8.70;;;2.10;99.90;;;;;;4162669;28;20041;-56
2021/12/31 06:24:52;;;;;;;9.55;9.05;;;2.10;99.90;;;;;;4159041;28;20053;-55
2021/12/31 06:26:58;;;;;;;10.88;10.48;;;2.00;99.90;;;;;;4163398;28;20076;-56
2021/12/31 06:29:00;;;;;;;9.98;9.27;;;1.90;99.90;;;;;;4161357;28;20406;-55
2021/12/31 06:31:02;;;;;;;13.07;12.60;;;2.00;99.90;;;;;;4155640;28;20080;-56
2021/12/31 06:33:05;;;;;;;12.45;11.70;;;1.90;99.90;;;;;;4159205;28;20061;-55
2021/12/31 06:35:07;;;;;;;17.35;16.17;;;1.90;99.90;;;;;;4158987;28;20069;-56
2021/12/31 06:37:09;;;;;;;;;;;1.80;99.90;;;;;;4160651;28;20061;-55
2021/12/31 06:39:11;;;;;;;13.35;12.55;;;1.70;99.90;;;;;;4161775;28;19929;-56
2021/12/31 06:41:16;;;;;;;13.88;12.88;;;1.70;99.90;;;;;;4159865;28;20044;-52
2021/12/31 06:43:17;;;;;;;21.90;19.85;;;1.70;99.90;;;;;;4163845;28;20034;-55
2021/12/31 06:45:20;;;;;;;22.50;20.35;;;1.70;99.90;;;;;;4158896;28;20593;-55
2021/12/31 06:47:22;;;;;;;27.27;24.35;;;1.60;99.90;;;;;;4163278;28;20613;-56
2021/12/31 06:49:24;;;;;;;15.57;14.23;;;1.60;99.90;;;;;;4160207;28;20041;-55
2021/12/31 06:51:26;;;;;;;13.13;12.45;;;1.60;99.90;;;;;;4153782;28;20074;-56
2021/12/31 06:53:28;;;;;;;14.23;13.27;;;1.60;99.90;;;;;;4153622;28;20065;-56
2021/12/31 06:55:32;;;;;;;12.82;12.32;;;1.60;99.90;;;;;;4162302;28;20049;-56
2021/12/31 06:57:35;;;;;;;13.52;12.63;;;1.60;99.90;;;;;;4161390;28;20092;-56
2021/12/31 06:59:37;;;;;;;15.85;14.18;;;1.60;99.90;;;;;;4163172;28;20076;-56
2021/12/31 07:01:39;;;;;;;14.63;13.75;;;1.60;99.90;;;;;;4159409;28;20042;-55
2021/12/31 07:03:42;;;;;;;16.42;15.15;;;1.60;99.90;;;;;;4163708;28;20045;-56
2021/12/31 07:05:44;;;;;;;13.55;12.68;;;1.60;99.90;;;;;;4162061;28;20558;-54
2021/12/31 07:07:46;;;;;;;14.38;13.60;;;1.60;99.90;;;;;;4161774;28;20069;-56
2021/12/31 07:09:48;;;;;;;16.10;15.18;;;1.60;99.90;;;;;;4161639;28;20466;-56
2021/12/31 07:11:50;;;;;;;19.52;18.13;;;1.50;99.90;;;;;;4152240;28;20042;-55
2021/12/31 07:13:52;;;;;;;16.15;15.35;;;1.50;99.90;;;;;;4159183;28;20064;-56
2021/12/31 07:15:54;;;;;;;14.40;13.80;;;1.50;99.90;;;;;;4165572;28;20044;-55
2021/12/31 07:17:56;;;;;;;15.90;14.85;;;1.60;99.90;;;;;;4161725;28;20140;-55
2021/12/31 07:19:58;;;;;;;13.50;12.85;;;1.60;99.90;;;;;;4165723;28;20072;-56
2021/12/31 07:22:01;;;;;;;15.68;14.50;;;1.60;99.90;;;;;;4162965;28;20061;-56
2021/12/31 07:24:03;;;;;;;16.33;15.18;;;1.60;99.90;;;;;;4165830;28;20061;-54
2021/12/31 07:26:06;;;;;;;14.32;13.52;;;1.60;99.90;;;;;;4164296;28;20086;-56
2021/12/31 07:28:10;;;;;;;14.23;13.30;;;1.70;99.90;;;;;;4163509;28;20074;-56
2021/12/31 07:30:16;;;;;;;15.52;14.57;;;1.80;99.90;;;;;;4162911;28;20054;-56
2021/12/31 07:32:18;;;;;;;14.00;13.20;;;1.80;99.90;;;;;;4174465;28;20077;-56
2021/12/31 07:34:20;;;;;;;16.02;14.77;;;1.90;99.90;;;;;;4163716;28;20052;-56
2021/12/31 07:36:23;;;;;;;;;;;1.90;99.90;;;;;;4159435;28;20097;-56
2021/12/31 07:38:32;;;;;;;20.40;18.80;;;1.80;99.90;;;;;;4159558;28;19921;-56
2021/12/31 07:40:39;;;;;;;20.10;18.40;;;1.80;99.90;;;;;;4163528;28;20095;-55
2021/12/31 07:42:41;;;;;;;17.98;16.65;;;1.80;99.90;;;;;;4162229;28;20499;-56
2021/12/31 07:44:43;;;;;;;16.40;15.40;;;1.80;99.90;;;;;;4163801;28;20049;-54
2021/12/31 07:46:46;;;;;;;16.02;14.77;;;1.80;99.90;;;;;;4160964;28;20516;-55
2021/12/31 07:48:48;;;;;;;15.63;14.35;;;1.80;99.90;;;;;;4167118;28;20072;-56
2021/12/31 07:50:52;;;;;;;17.27;16.00;;;1.80;99.90;;;;;;4163322;28;20065;-56
2021/12/31 07:52:54;;;;;;;18.63;17.05;;;1.90;99.90;;;;;;4165428;28;20173;-54
2021/12/31 07:54:56;;;;;;;18.45;17.02;;;1.80;99.90;;;;;;4164329;28;20072;-56
2021/12/31 07:56:58;;;;;;;16.48;15.38;;;1.90;99.90;;;;;;4174605;28;20080;-50
2021/12/31 07:59:00;;;;;;;16.92;15.82;;;1.90;99.90;;;;;;4161821;28;20044;-57
2021/12/31 08:01:02;;;;;;;50.08;41.42;;;2.10;99.90;;;;;;4151625;28;20033;-57
2021/12/31 08:03:05;;;;;;;;;;;2.20;99.90;;;;;;4163667;28;20033;-57
2021/12/31 08:05:08;;;;;;;22.73;20.63;;;2.10;99.90;;;;;;4165070;28;19960;-57
2021/12/31 08:07:10;;;;;;;;;;;2.20;99.90;;;;;;4161662;28;20120;-58
2021/12/31 08:09:12;;;;;;;20.25;18.60;;;2.30;99.90;;;;;;4164726;28;19979;-57
2021/12/31 08:11:14;;;;;;;17.45;16.10;;;2.40;99.90;;;;;;4160898;28;20077;-58
2021/12/31 08:13:16;;;;;;;13.27;12.77;;;2.60;99.90;;;;;;4158952;28;20049;-57
2021/12/31 08:15:18;;;;;;;8.73;8.43;;;2.70;99.90;;;;;;4161372;28;20041;-57
2021/12/31 08:17:20;;;;;;;8.05;7.85;;;2.70;99.90;;;;;;4158532;28;20552;-57
2021/12/31 08:19:22;;;;;;;21.92;20.20;;;2.80;99.90;;;;;;4161462;28;20536;-58
2021/12/31 08:21:24;;;;;;;16.75;15.77;;;2.90;99.90;;;;;;4157799;28;20033;-58
2021/12/31 08:23:26;;;;;;;13.52;12.57;;;2.90;99.90;;;;;;4159052;28;20033;-58
2021/12/31 08:25:28;;;;;;;7.60;7.13;;;3.00;99.90;;;;;;4148244;28;20053;-57
2021/12/31 08:27:30;;;;;;;13.48;12.80;;;3.00;99.90;;;;;;4156547;28;20073;-57
2021/12/31 08:29:32;;;;;;;19.38;18.15;;;3.00;99.90;;;;;;4156565;28;20149;-57
2021/12/31 08:31:35;;;;;;;21.92;19.92;;;3.00;99.90;;;;;;4162874;28;20044;-57
2021/12/31 08:33:37;;;;;;;18.60;17.05;;;3.00;99.90;;;;;;4156771;28;20076;-57
2021/12/31 08:35:39;;;;;;;20.27;18.17;;;3.00;99.90;;;;;;4160459;28;20034;-57
2021/12/31 08:37:42;;;;;;;22.02;20.15;;;3.10;99.90;;;;;;4154479;28;20073;-57
2021/12/31 08:39:44;;;;;;;19.75;18.10;;;3.10;99.90;;;;;;4161902;28;20041;-57
2021/12/31 08:41:46;;;;;;;15.25;14.38;;;3.10;99.90;;;;;;4155231;28;20063;-58
2021/12/31 08:43:49;;;;;;;11.75;11.15;;;3.10;99.90;;;;;;4160486;28;20121;-57
2021/12/31 08:45:52;;;;;;;9.40;9.10;;;3.20;99.90;;;;;;4154769;28;20030;-58
2021/12/31 08:47:54;;;;;;;8.25;8.05;;;3.40;99.90;;;;;;4160365;28;20049;-58
2021/12/31 08:49:56;;;;;;;8.18;7.93;;;3.50;99.90;;;;;;4153259;28;20635;-57
2021/12/31 08:52:00;;;;;;;13.77;12.75;;;3.60;99.90;;;;;;4156397;28;20049;-57
2021/12/31 08:54:02;;;;;;;108.88;67.95;;;3.70;99.90;;;;;;4156780;28;20045;-57
2021/12/31 08:56:05;;;;;;;73.38;51.53;;;3.70;99.90;;;;;;4156473;28;20037;-57
2021/12/31 08:58:07;;;;;;;62.28;41.90;;;3.80;99.90;;;;;;4158894;28;20030;-58
2021/12/31 09:00:10;;;;;;;35.72;26.92;;;3.80;99.90;;;;;;4154382;28;20075;-57
2021/12/31 09:02:13;;;;;;;85.28;57.78;;;3.90;99.90;;;;;;4159259;28;20065;-57
2021/12/31 09:04:15;;;;;;;31.10;27.85;;;3.90;99.90;;;;;;4158085;28;20037;-57
2021/12/31 09:06:18;;;;;;;14.57;13.48;;;4.10;99.90;;;;;;4163189;28;20033;-57
2021/12/31 09:08:22;;;;;;;73.28;48.95;;;4.20;99.90;;;;;;4161709;28;20075;-57
2021/12/31 09:10:25;;;;;;;57.78;41.08;;;4.30;99.90;;;;;;4163846;28;20073;-57
2021/12/31 09:12:27;;;;;;;22.45;20.55;;;4.50;99.90;;;;;;4161138;28;20041;-58
2021/12/31 09:14:29;;;;;;;16.92;15.80;;;4.50;99.90;;;;;;4162746;28;20045;-58
2021/12/31 09:16:31;;;;;;;21.23;19.33;;;4.60;99.90;;;;;;4162633;28;20151;-58
2021/12/31 09:18:33;;;;;;;19.67;17.95;;;4.50;99.90;;;;;;4162481;28;20055;-58
2021/12/31 09:20:35;;;;;;;24.27;22.17;;;4.50;99.90;;;;;;4159926;28;20064;-58
2021/12/31 09:22:37;;;;;;;25.17;22.83;;;4.50;99.90;;;;;;4164225;28;20150;-58
2021/12/31 09:24:39;;;;;;;25.35;22.88;;;4.50;99.90;;;;;;4161616;28;20587;-58
2021/12/31 09:26:42;;;;;;;29.75;26.85;;;4.60;99.90;;;;;;4164870;28;20409;-58
2021/12/31 09:28:44;;;;;;;28.00;22.73;;;4.60;99.90;;;;;;4161337;28;20585;-59
2021/12/31 09:30:46;;;;;;;26.65;23.98;;;4.70;99.90;;;;;;4163783;28;20088;-59
2021/12/31 09:32:48;;;;;;;23.25;21.13;;;4.70;99.90;;;;;;4163110;28;20119;-59
2021/12/31 09:34:51;;;;;;;16.17;15.00;;;4.80;99.90;;;;;;4163324;28;20413;-58
2021/12/31 09:36:53;;;;;;;15.25;14.25;;;4.80;99.90;;;;;;4161428;28;20034;-58
2021/12/31 09:38:55;;;;;;;13.00;12.13;;;4.80;99.90;;;;;;4149503;28;20038;-58
2021/12/31 09:40:58;;;;;;;15.88;14.65;;;5.00;99.90;;;;;;4159643;28;20064;-58
2021/12/31 09:43:12;;;;;;;13.10;11.88;;;5.00;99.90;;;;;;4156919;28;20038;-58
2021/12/31 09:45:16;;;;;;;7.55;7.45;;;5.10;99.90;;;;;;4155870;28;20038;-58
2021/12/31 09:47:18;;;;;;;6.03;5.85;;;5.30;99.90;;;;;;4154109;28;20049;-58
2021/12/31 09:49:21;;;;;;;4.28;3.95;;;5.40;99.90;;;;;;4159488;28;20569;-58
2021/12/31 09:51:25;;;;;;;6.85;6.75;;;5.80;99.90;;;;;;4163602;28;20041;-58
2021/12/31 09:53:27;;;;;;;9.43;8.82;;;6.10;99.90;;;;;;4158297;28;20037;-58
2021/12/31 09:55:41;;;;;;;12.90;11.90;;;6.30;99.90;;;;;;4169944;28;20068;-58
2021/12/31 09:57:43;;;;;;;11.90;10.80;;;6.60;99.90;;;;;;4175019;28;20100;-58
2021/12/31 09:59:46;;;;;;;27.98;19.30;;;7.10;99.90;;;;;;4166860;28;20033;-58
2021/12/31 10:01:52;;;;;;;60.42;39.00;;;7.10;99.90;;;;;;4157460;28;20043;-58
2021/12/31 10:04:00;;;;;;;32.67;22.67;;;7.20;99.90;;;;;;4146367;28;20720;-58
2021/12/31 10:06:12;;;;;;;17.63;12.85;;;7.50;99.90;;;;;;4159554;28;20055;-58
2021/12/31 10:08:25;;;;;;;13.73;12.63;;;7.80;99.90;;;;;;4157037;28;20044;-58
2021/12/31 10:10:29;;;;;;;13.50;12.50;;;8.10;99.90;;;;;;4159227;28;20049;-58
2021/12/31 10:12:44;;;;;;;14.23;13.15;;;8.20;99.90;;;;;;4153369;28;20045;-58
2021/12/31 10:14:46;;;;;;;15.55;14.05;;;8.30;99.90;;;;;;4161181;28;20046;-59
2021/12/31 10:16:48;;;;;;;15.13;13.73;;;8.50;99.90;;;;;;4160539;28;20113;-58
2021/12/31 10:19:19;;;;;;;19.45;17.48;;;8.40;99.90;;;;;;4162476;28;20061;-58
2021/12/31 10:21:56;;;;;;;20.90;19.10;;;8.40;99.90;;;;;;4160160;28;20079;-58
2021/12/31 10:23:58;;;;;;;29.90;23.40;;;8.30;99.90;;;;;;4164433;28;20045;-59
2021/12/31 10:26:12;;;;;;;20.92;18.90;;;8.40;99.90;;;;;;4160750;28;20079;-58
2021/12/31 10:28:16;;;;;;;18.92;17.23;;;8.50;99.90;;;;;;4162893;28;20045;-58
2021/12/31 10:30:23;;;;;;;15.15;13.88;;;8.50;99.90;;;;;;4160834;28;20044;-59
2021/12/31 10:32:28;;;;;;;14.70;13.52;;;8.60;99.90;;;;;;4163265;28;20076;-58
2021/12/31 10:34:32;;;;;;;14.52;13.27;;;8.70;99.90;;;;;;4160431;28;20120;-58
2021/12/31 10:36:36;;;;;;;16.13;14.75;;;8.70;99.90;;;;;;4162125;28;20128;-58
2021/12/31 10:38:40;;;;;;;14.25;13.18;;;8.80;99.90;;;;;;4160338;28;20095;-58
2021/12/31 10:40:45;;;;;;;13.65;12.52;;;9.00;99.90;;;;;;4162356;28;20033;-58
2021/12/31 10:42:47;;;;;;;15.55;14.18;;;9.10;99.90;;;;;;4160838;28;20555;-58